Terminal Aerodrome Forecast
Issued by NWS

Home | Current Version | Previous Version | Graphics & Text | Print | Product List | Glossary On
Versions: 1 2 3 4 5 6 7 8 9 10 11 12 13 14 15
219
FTUS42 KMHX 072334
TAFPGV
TAF
KPGV 072334Z 0800/0824 00000KT P6SM FEW250
     FM080500 00000KT P6SM BKN080
     FM080800 00000KT P6SM BKN025
     FM081700 29010KT P6SM OVC025
     FM081800 30010KT P6SM OVC050
     FM082300 30010KT P6SM SCT250
      AMD LTD TO CLD VIS AND WIND=

USA.gov is the U.S. government's official web portal to all federal, state and local government web resources and services.